Tiempo atmosférico en la estación meteorológica de Liceras, Soria (1150 m.)



Fecha
DESCASC
Temp. máxima en grados centígrados (hora)
DESCASC
Temp. mínima en grados centígrados (hora)
DESCASC
Temp. media en grados centígrados
DESCASC
Racha de viento máxima en m/sg (hora)
DESCASC
Velocidad máxima media en intervalos de 10 minutos(hora)
DESCASC
Precipitaciones diarias en mm
DESCASC
Precipitaciones de 00:00 a 06:00 en mm
DESCASC
Precipitaciones de 06:00 a 12:00 en mm
DESCASC
Precipitaciones de 12:00 a 18:00 en mm
DESCASC
Precipitaciones de 18:00 a 24:00 en mm
DESCASC
15-08-2019 29.5 (18:10) 12.9 (07:00) 21.2 10 (18:50) 6.11 (20:10) 0 0 0 0 0
14-08-2019 28.7 (17:20) 9.8 (00:00) 19.3 10 (18:50) 5.83 (17:00) 0 0 0 0 0
13-08-2019 24.2 (18:00) 7.1 (00:00) 15.7 10 (13:50) 5.56 (19:40) 0 0 0 0 0
12-08-2019 22.5 (18:40) 8.7 (00:00) 15.6 12.22 (17:00) 8.33 (07:50) 0 0 0 0 0
11-08-2019 25.1 (16:20) 13 (00:00) 19.1 12.78 (06:00) 7.5 (06:10) 0 0 0 0 0
10-08-2019 28 (18:40) 12.1 (00:00) 20.1 7.78 (17:30) 3.89 (17:10) 0 0 0 0 0
09-08-2019 28.5 (13:10) 15.4 (00:00) 21.9 14.17 (13:00) 10 (19:50) 2.6 0 0 0 2.6
08-08-2019 31.7 (18:00) 15.7 (00:00) 23.7 12.5 (19:10) 6.39 (10:50) 0 0 0 0 0
07-08-2019 25 (14:10) 17.7 (00:00) 21.4 12.22 (16:10) 7.5 (16:20) 0.2 0 0 0.2 0
06-08-2019 33.5 (18:40) 16.5 (00:00) 25 9.17 (14:20) 5.28 (08:20) 0 0 0 0 0
05-08-2019 33.6 (18:40) 15.6 (00:00) 24.6 8.89 (13:40) 5.56 (20:00) 0 0 0 0 0
04-08-2019 33.8 (17:30) 14.9 (00:00) 24.3 9.17 (18:20) 5.28 (18:10) 0 0 0 0 0
03-08-2019 34.2 (17:40) 15.4 (00:00) 24.8 11.67 (07:10) 7.22 (07:10) 0 0 0 0 0
02-08-2019 31.9 (17:40) 13.9 (00:00) 22.9 9.17 (22:40) 6.67 (22:40) 0 0 0 0 0
01-08-2019 30.2 (17:50) 18.7 (00:00) 24.5 13.33 (14:20) 9.17 (15:20) 0 0 0 0 0
31-07-2019 30.9 (17:50) 10.2 (00:00) 20.5 11.11 (17:40) 7.78 (07:30) 0 0 0 0 0
30-07-2019 24.8 (18:00) 10.9 (00:00) 17.8 9.44 (16:10) 6.94 (06:40) 0 0 0 0 0
29-07-2019 -- (--) -- (--) -- -- (--) -- (--) -- -- -- 0 0
28-07-2019 -- (--) -- (--) -- -- (--) -- (--) -- -- -- -- --
27-07-2019 -- (--) -- (--) -- -- (--) -- (--) -- -- -- -- --
26-07-2019 -- (--) -- (--) -- -- (--) -- (--) -- -- -- -- --
25-07-2019 -- (--) -- (--) -- -- (--) -- (--) -- -- -- -- --
24-07-2019 -- (--) -- (--) -- -- (--) -- (--) -- -- -- -- --
23-07-2019 -- (--) -- (--) -- -- (--) -- (--) -- 0 0 -- --
22-07-2019 34.1 (18:10) 22 (00:00) 28 16.67 (05:00) 7.78 (05:10) 0 0 0 0 0
21-07-2019 35.1 (17:20) 19.6 (00:00) 27.3 9.44 (17:50) 6.39 (17:50) 0 0 0 0 0
20-07-2019 34.4 (18:50) 20.9 (00:00) 27.7 8.61 (18:00) 5 (17:50) 0 0 0 0 0
19-07-2019 32.9 (17:10) 15.1 (00:00) 24 10 (17:00) 5.83 (16:50) 0 0 0 0 0
18-07-2019 29.5 (17:30) 13.2 (00:00) 21.3 13.33 (16:20) 6.67 (16:20) 0 0 0 0 0

Gráficas

Temp. máximas Temp. mínimas Temp. medias Precipitaciones Rachas de viento máximas Velocidades máximas media en intervalos de 10 minutos

Datos horarios

Fecha y hora oficial Temperatura (ºC) Velocidad del viento (km/h) Dirección del viento Racha (km/h) Dirección de racha Precipitación (mm) Presión (hPa) Tendencia (hPa) Humedad (%)
2019-08-16 23:00:00 23.6 12 Oeste 17 Oeste 0 -- -- 34
2019-08-16 22:00:00 25 12 Noroeste 23 Noroeste 0 -- -- 32
2019-08-16 21:00:00 27.8 15 Noroeste 33 Noroeste 0 -- -- 29
2019-08-16 20:00:00 30.6 17 Noroeste 36 Noroeste 0 -- -- 23
2019-08-16 19:00:00 31.7 19 Noroeste 38 Noroeste 0 -- -- 22
2019-08-16 18:00:00 32.2 19 Noroeste 36 Oeste 0 -- -- 21
2019-08-16 17:00:00 31.7 20 Oeste 43 Oeste 0 -- -- 23
2019-08-16 16:00:00 31.1 24 Oeste 41 Oeste 0 -- -- 24
2019-08-16 15:00:00 30.9 22 Noroeste 36 Oeste 0 -- -- 25
2019-08-16 14:00:00 30.1 16 Noroeste 34 Noroeste 0 -- -- 26
2019-08-16 13:00:00 29.8 14 Noroeste 27 Norte 0 -- -- 28
2019-08-16 12:00:00 28.2 7 Norte 19 Noroeste 0 -- -- 33
2019-08-16 11:00:00 26.4 10 Noroeste 17 Noroeste 0 -- -- 37
2019-08-16 10:00:00 25.6 10 Noroeste 13 Noroeste 0 -- -- 40
2019-08-16 09:00:00 22.7 4 Este 12 Sudeste 0 -- -- 49
2019-08-16 08:00:00 17.1 9 Sudeste 15 Sudeste 0 -- -- 63
2019-08-16 07:00:00 15.5 12 Sudeste 18 Sudeste 0 -- -- 67
2019-08-16 06:00:00 16.8 10 Sudeste 19 Sudeste 0 -- -- 60
2019-08-16 05:00:00 16.1 13 Sudeste 21 Sudeste 0 -- -- 62
2019-08-16 04:00:00 15.8 14 Sudeste 15 Sudeste 0 -- -- 62
2019-08-16 03:00:00 16.6 11 Sudeste 15 Sudeste 0 -- -- 62
2019-08-16 02:00:00 16.1 13 Sudeste 15 Sudeste 0 -- -- 64
2019-08-16 01:00:00 17.6 12 Sudeste 21 Sudeste 0 -- -- 60
2019-08-16 00:00:00 18.5 13 Sudeste 23 Sudeste 0 -- -- 57
2019-08-15 23:00:00 19.6 13 Sudeste 19 Sudeste 0 -- -- 53
2019-08-15 22:00:00 22.5 12 Nordeste 20 Norte 0 -- -- 44
2019-08-15 21:00:00 24.6 17 Norte 30 Norte 0 -- -- 39
2019-08-15 20:00:00 27.5 20 Noroeste 32 Norte 0 -- -- 33
2019-08-15 19:00:00 28.8 15 Noroeste 36 Noroeste 0 -- -- 28
2019-08-15 18:00:00 29.3 20 Noroeste 33 Noroeste 0 -- -- 26
2019-08-15 17:00:00 28.9 17 Norte 31 Noroeste 0 -- -- 27
2019-08-15 16:00:00 28.3 17 Norte 31 Noroeste 0 -- -- 28
2019-08-15 15:00:00 28 17 Noroeste 36 Noroeste 0 -- -- 27
2019-08-15 14:00:00 27.4 17 Noroeste 31 Nordeste 0 -- -- 25
2019-08-15 13:00:00 26.3 17 Noroeste 30 Oeste 0 -- -- 36
2019-08-15 12:00:00 25 16 Noroeste 29 Noroeste 0 -- -- 44
2019-08-15 11:00:00 24 12 Noroeste 21 Oeste 0 -- -- 49
2019-08-15 10:00:00 22 9 Noroeste 19 Noroeste 0 -- -- 50
2019-08-15 09:00:00 19.7 4 Norte 9 Este 0 -- -- 47
2019-08-15 08:00:00 14 2 Sudeste 8 Noroeste 0 -- -- 56
2019-08-15 07:00:00 12.9 4 Noroeste 6 Noroeste 0 -- -- 56
2019-08-15 06:00:00 15 5 Sudeste 12 Sudoeste 0 -- -- 49
2019-08-15 05:00:00 15.4 6 Sudeste 14 Sudoeste 0 -- -- 48
2019-08-15 04:00:00 15.7 6 Sudeste 15 Sudeste 0 -- -- 47
2019-08-15 03:00:00 16.7 6 Sur 14 Sudeste 0 -- -- 43
2019-08-15 02:00:00 15.7 12 Sudeste 16 Sudeste 0 -- -- 43
2019-08-15 01:00:00 18.4 12 Sur 17 Sur 0 -- -- 37
2019-08-15 00:00:00 18.6 6 Sur 12 Sudoeste 0 -- -- 36
2019-08-14 23:00:00 20.7 8 Sudoeste 11 Sudoeste 0 -- -- 32
2019-08-14 22:00:00 21.4 4 Noroeste 13 Noroeste 0 -- -- 30
2019-08-14 21:00:00 25.1 10 Norte 22 Norte 0 -- -- 25
2019-08-14 20:00:00 27.4 18 Norte 31 Noroeste 0 -- -- 23
2019-08-14 19:00:00 28.6 16 Noroeste 36 Norte 0 -- -- 21
2019-08-14 18:00:00 28.4 15 Norte 32 Norte 0 -- -- 22
2019-08-14 17:00:00 28.4 21 Noroeste 33 Noroeste 0 -- -- 22
2019-08-14 16:00:00 28.2 14 Oeste 33 Noroeste 0 -- -- 21
2019-08-14 15:00:00 26.8 13 Norte 27 Norte 0 -- -- 24
2019-08-14 14:00:00 26.6 13 Noroeste 27 Noroeste 0 -- -- 25
2019-08-14 13:00:00 24.8 12 Noroeste 26 Noroeste 0 -- -- 26
2019-08-14 12:00:00 24.3 16 Noroeste 26 Noroeste 0 -- -- 26
2019-08-14 11:00:00 23.3 11 Norte 18 Norte 0 -- -- 28
2019-08-14 10:00:00 23.1 6 Noroeste 12 Noroeste 0 -- -- 28
2019-08-14 09:00:00 19 3 Sudeste 5 Sudeste 0 -- -- 38
2019-08-14 08:00:00 13.4 3 Sudeste 10 Sudeste 0 -- -- 50
2019-08-14 07:00:00 10.8 2 Sudeste 8 Sudeste 0 -- -- 57
2019-08-14 06:00:00 11.4 5 Sudeste 10 Sudeste 0 -- -- 54
2019-08-14 05:00:00 10.1 5 Sudeste 13 Sudeste 0 -- -- 59
2019-08-14 04:00:00 11 2 Sur 15 Sudeste 0 -- -- 56
2019-08-14 03:00:00 10.6 10 Sudeste 15 Sudeste 0 -- -- 56
2019-08-14 02:00:00 11.6 10 Sudeste 13 Sudeste 0 -- -- 53
2019-08-14 01:00:00 12.9 6 Sur 12 Sur 0 -- -- 48
2019-08-14 00:00:00 15.7 3 Sur 6 Norte 0 -- -- 41
2019-08-13 23:00:00 15.8 3 Norte 11 Norte 0 -- -- 38
2019-08-13 22:00:00 16.5 5 Norte 16 Noroeste 0 -- -- 32
2019-08-13 21:00:00 20.4 17 Norte 25 Norte 0 -- -- 24
2019-08-13 20:00:00 22.5 19 Norte 29 Noroeste 0 -- -- 22
2019-08-13 19:00:00 23.8 17 Noroeste 30 Noroeste 0 -- -- 21
2019-08-13 18:00:00 24.2 18 Noroeste 32 Noroeste 0 -- -- 21
2019-08-13 17:00:00 23.8 15 Noroeste 31 Noroeste 0 -- -- 22
2019-08-13 16:00:00 23 14 Noroeste 28 Noroeste 0 -- -- 23
2019-08-13 15:00:00 22.1 13 Norte 31 Noroeste 0 -- -- 26
2019-08-13 14:00:00 21.7 12 Noroeste 36 Noroeste 0 -- -- 28
2019-08-13 13:00:00 20.1 13 Norte 24 Norte 0 -- -- 29
2019-08-13 12:00:00 19.2 6 Norte 17 Norte 0 -- -- 31
2019-08-13 11:00:00 19.3 3 Este 22 Este 0 -- -- 35
2019-08-13 10:00:00 14.3 19 Este 26 Este 0 -- -- 50
2019-08-13 09:00:00 13 17 Sudeste 29 Sudeste 0 -- -- 56
2019-08-13 08:00:00 8.9 8 Sudeste 16 Sudeste 0 -- -- 72
2019-08-13 07:00:00 7.1 11 Sudeste 17 Sudeste 0 -- -- 77
2019-08-13 06:00:00 7.6 12 Sudeste 17 Sudeste 0 -- -- 79
2019-08-13 05:00:00 8.6 12 Sudeste 21 Sudeste 0 -- -- 76
2019-08-13 04:00:00 10.4 15 Sudeste 20 Sudeste 0 -- -- 72
2019-08-13 03:00:00 11.2 9 Sudeste 14 Sudeste 0 -- -- 69
2019-08-13 02:00:00 11.9 4 Este 10 Sudeste 0 -- -- 66
2019-08-13 01:00:00 12.4 10 Sudeste 17 Sudeste 0 -- -- 64
2019-08-13 00:00:00 12.7 11 Sudeste 26 Este 0 -- -- 63
2019-08-12 23:00:00 13.9 18 Este 27 Este 0 -- -- 56
2019-08-12 22:00:00 15.1 14 Norte 25 Norte 0 -- -- 48
2019-08-12 21:00:00 17.7 21 Norte 35 Norte 0 -- -- 37
2019-08-12 20:00:00 21 9 Norte 23 Noroeste 0 -- -- 28
2019-08-12 19:00:00 20 10 Noroeste 26 Norte 0 -- -- 29
2019-08-12 18:00:00 21.7 15 Noroeste 28 Norte 0 -- -- 28
2019-08-12 17:00:00 21.2 18 Noroeste 44 Norte 0 -- -- 30
2019-08-12 16:00:00 20.9 15 Noroeste 34 Noroeste 0 -- -- 30
2019-08-12 15:00:00 19.9 16 Norte 38 Noroeste 0 -- -- 32
2019-08-12 14:00:00 18.5 14 Norte 31 Noroeste 0 -- -- 38
2019-08-12 13:00:00 18.1 16 Norte 31 Norte 0 -- -- 37
2019-08-12 12:00:00 16.5 14 Noroeste 27 Norte 0 -- -- 48
2019-08-12 11:00:00 15 17 Noroeste 26 Noroeste 0 -- -- 57
2019-08-12 10:00:00 13.3 18 Noroeste 28 Noroeste 0 -- -- 68
2019-08-12 09:00:00 11.2 20 Noroeste 39 Oeste 0 -- -- 80
2019-08-12 08:00:00 9.1 26 Oeste 39 Oeste 0 -- -- 91
2019-08-12 07:00:00 8.9 22 Oeste 29 Noroeste 0 -- -- 87
2019-08-12 06:00:00 9.5 19 Oeste 27 Oeste 0 -- -- 81
2019-08-12 05:00:00 10 20 Oeste 26 Oeste 0 -- -- 80
2019-08-12 04:00:00 10.6 21 Noroeste 34 Noroeste 0 -- -- 79
2019-08-12 03:00:00 12.3 22 Oeste 31 Noroeste 0 -- -- 59
2019-08-12 02:00:00 13.2 6 Norte 23 Oeste 0 -- -- 53
2019-08-12 01:00:00 14.4 16 Noroeste 25 Noroeste 0 -- -- 44
2019-08-12 00:00:00 15.1 3 Noroeste 11 Oeste 0 -- -- 42
2019-08-11 23:00:00 16.5 8 Noroeste 19 Noroeste 0 -- -- 40
2019-08-11 22:00:00 17.7 12 Noroeste 30 Noroeste 0 -- -- 39
2019-08-11 21:00:00 19.8 20 Noroeste 33 Noroeste 0 -- -- 36
2019-08-11 20:00:00 20.5 22 Noroeste 38 Noroeste 0 -- -- 35
2019-08-11 19:00:00 22.5 25 Oeste 39 Oeste 0 -- -- 36
2019-08-11 18:00:00 21.7 23 Noroeste 37 Noroeste 0 -- -- 41
2019-08-11 17:00:00 22.5 22 Noroeste 43 Noroeste 0 -- -- 37
2019-08-11 16:00:00 24.5 24 Oeste 40 Oeste 0 -- -- 33
2019-08-11 15:00:00 23.9 17 Noroeste 36 Norte 0 -- -- 38
2019-08-11 14:00:00 22.3 17 Norte 32 Norte 0 -- -- 39
2019-08-11 13:00:00 23.1 14 Noroeste 31 Noroeste 0 -- -- 38
2019-08-11 12:00:00 22.5 9 Noroeste 19 Noroeste 0 -- -- 40
2019-08-11 11:00:00 21.3 4 Este 11 Sudeste 0 -- -- 46
2019-08-11 10:00:00 19.2 4 Sur 11 Sur 0 -- -- 56
2019-08-11 09:00:00 17.8 0 Calma 6 Sudoeste 0 -- -- 62
2019-08-11 08:00:00 13.3 4 Nordeste 12 Noroeste 0 -- -- 83
2019-08-11 07:00:00 13.6 13 Noroeste 40 Noroeste 0 -- -- 80
2019-08-11 06:00:00 16.7 17 Noroeste 46 Noroeste 0 -- -- 53
2019-08-11 05:00:00 15.9 10 Oeste 19 Oeste 0 -- -- 57
2019-08-11 04:00:00 16.1 12 Oeste 18 Oeste 0 -- -- 56
2019-08-11 03:00:00 15.8 10 Sudoeste 13 Sudoeste 0 -- -- 58
2019-08-11 02:00:00 15.6 7 Oeste 12 Oeste 0 -- -- 59
2019-08-11 01:00:00 16.1 5 Sudeste 9 Sur 0 -- -- 59
2019-08-11 00:00:00 17.1 3 Sudeste 11 Oeste 0 -- -- 55
2019-08-10 23:00:00 19.3 9 Oeste 14 Norte 0 -- -- 48
2019-08-10 22:00:00 21 3 Norte 13 Noroeste 0 -- -- 46
2019-08-10 21:00:00 22.6 9 Noroeste 19 Norte 0 -- -- 42
2019-08-10 20:00:00 23.8 10 Norte 20 Norte 0 -- -- 40
2019-08-10 19:00:00 26.2 14 Nordeste 24 Nordeste 0 -- -- 36
2019-08-10 18:00:00 26.6 4 Oeste 28 Noroeste 0 -- -- 37
2019-08-10 17:00:00 26.3 4 Noroeste 23 Noroeste 0 -- -- 37
2019-08-10 16:00:00 25.4 11 Noroeste 26 Norte 0 -- -- 41
2019-08-10 15:00:00 23.6 9 Norte 16 Norte 0 -- -- 46
2019-08-10 14:00:00 22.4 8 Norte 19 Noroeste 0 -- -- 50
2019-08-10 13:00:00 21.2 6 Noroeste 17 Norte 0 -- -- 52
2019-08-10 12:00:00 19.6 12 Norte 19 Norte 0 -- -- 57
2019-08-10 11:00:00 19.2 7 Norte 14 Noroeste 0 -- -- 58
2019-08-10 10:00:00 19.4 4 Norte 9 Oeste 0 -- -- 55
2019-08-10 09:00:00 17.7 5 Oeste 16 Oeste 0 -- -- 67
2019-08-10 08:00:00 14.1 9 Oeste 17 Oeste 0 -- -- 88
2019-08-10 07:00:00 13.3 11 Oeste 19 Oeste 0 -- -- 93
2019-08-10 06:00:00 12.7 8 Noroeste 18 Noroeste 0 -- -- 93
2019-08-10 05:00:00 12.2 0 Calma 8 Norte 0 -- -- 92
2019-08-10 04:00:00 13 0 Calma 10 Norte 0 -- -- 91
2019-08-10 03:00:00 13.8 5 Nordeste 12 Noroeste 0 -- -- 91
2019-08-10 02:00:00 14 6 Noroeste 16 Noroeste 0 -- -- 91
2019-08-10 01:00:00 14.6 9 Noroeste 16 Noroeste 0 -- -- 90
2019-08-10 00:00:00 16.3 8 Oeste 19 Oeste 0 -- -- 81
2019-08-09 23:00:00 15.4 9 Noroeste 18 Noroeste 0 -- -- 88
2019-08-09 22:00:00 15.7 4 Este 27 Oeste 0 -- -- 87
2019-08-09 21:00:00 15.8 22 Oeste 49 Oeste 0 -- -- 84
2019-08-09 20:00:00 16.9 32 Oeste 50 Oeste 2.6 -- -- 84
2019-08-09 19:00:00 21.7 27 Noroeste 44 Oeste 0 -- -- 66
2019-08-09 18:00:00 25.2 30 Oeste 44 Oeste 0 -- -- 54
2019-08-09 17:00:00 26.3 26 Oeste 39 Oeste 0 -- -- 51
2019-08-09 16:00:00 27 15 Oeste 38 Oeste 0 -- -- 46
2019-08-09 15:00:00 27 23 Oeste 39 Oeste 0 -- -- 46
2019-08-09 14:00:00 27.7 26 Oeste 38 Noroeste 0 -- -- 40
2019-08-09 13:00:00 28 24 Noroeste 51 Noroeste 0 -- -- 39
2019-08-09 12:00:00 26.8 25 Oeste 40 Oeste 0 -- -- 38
2019-08-09 11:00:00 25.9 25 Oeste 40 Oeste 0 -- -- 39
2019-08-09 10:00:00 25 6 Norte 12 Nordeste 0 -- -- 43
2019-08-09 09:00:00 22.2 5 Sudeste 9 Sudeste 0 -- -- 55
2019-08-09 08:00:00 18.1 6 Sudeste 9 Sudeste 0 -- -- 73
2019-08-09 07:00:00 15.5 8 Sudeste 9 Sudeste 0 -- -- 83
2019-08-09 06:00:00 17.2 3 Oeste 7 Sudoeste 0 -- -- 77
2019-08-09 05:00:00 17.7 5 Sur 12 Sudeste 0 -- -- 73
2019-08-09 04:00:00 19.1 2 Sur 9 Sudoeste 0 -- -- 60
2019-08-09 03:00:00 19.3 4 Sudeste 17 Oeste 0 -- -- 58
2019-08-09 02:00:00 20.4 4 Oeste 19 Oeste 0 -- -- 55
2019-08-09 01:00:00 21.2 6 Oeste 20 Oeste 0 -- -- 54
2019-08-09 00:00:00 22.3 7 Oeste 22 Oeste 0 -- -- 50
2019-08-08 23:00:00 23.8 13 Oeste 24 Oeste 0 -- -- 46
2019-08-08 22:00:00 25.3 18 Oeste 37 Sudoeste 0 -- -- 41
2019-08-08 21:00:00 27.3 17 Sudoeste 31 Sudoeste 0 -- -- 37
2019-08-08 20:00:00 28 16 Oeste 45 Sudoeste 0 -- -- 38
2019-08-08 19:00:00 30.7 16 Sur 41 Sudoeste 0 -- -- 34
2019-08-08 18:00:00 31.7 16 Sudoeste 27 Sudoeste 0 -- -- 32
2019-08-08 17:00:00 29.7 10 Noroeste 33 Oeste 0 -- -- 35
2019-08-08 16:00:00 29.4 15 Oeste 27 Oeste 0 -- -- 37
2019-08-08 15:00:00 27.8 10 Sudeste 30 Oeste 0 -- -- 41
2019-08-08 14:00:00 27.6 14 Oeste 29 Oeste 0 -- -- 42
2019-08-08 13:00:00 26.5 21 Noroeste 41 Oeste 0 -- -- 45
2019-08-08 12:00:00 25.2 15 Oeste 33 Oeste 0 -- -- 48
2019-08-08 11:00:00 23.3 22 Oeste 36 Oeste 0 -- -- 52
2019-08-08 10:00:00 22.1 21 Oeste 32 Oeste 0 -- -- 51
2019-08-08 09:00:00 20.6 13 Oeste 21 Noroeste 0 -- -- 53
2019-08-08 08:00:00 17.4 13 Oeste 19 Oeste 0 -- -- 63
2019-08-08 07:00:00 16.1 9 Noroeste 21 Sudoeste 0 -- -- 68
2019-08-08 06:00:00 16.9 10 Oeste 20 Oeste 0 -- -- 65
2019-08-08 05:00:00 17.1 11 Oeste 19 Oeste 0 -- -- 64
2019-08-08 04:00:00 17.4 12 Oeste 21 Oeste 0 -- -- 61
2019-08-08 03:00:00 16.3 7 Oeste 11 Oeste 0 -- -- 64
2019-08-08 02:00:00 15.7 8 Noroeste 14 Noroeste 0 -- -- 66
2019-08-08 01:00:00 18.2 9 Oeste 20 Oeste 0 -- -- 56
2019-08-08 00:00:00 18.5 10 Oeste 20 Oeste 0 -- -- 56
2019-08-07 23:00:00 18.8 9 Oeste 17 Oeste 0 -- -- 55
2019-08-07 22:00:00 19.9 14 Oeste 30 Oeste 0 -- -- 54
2019-08-07 21:00:00 20.7 17 Oeste 27 Oeste 0 -- -- 48
2019-08-07 20:00:00 21 16 Oeste 32 Sudoeste 0 -- -- 48
2019-08-07 19:00:00 21 20 Oeste 32 Oeste 0 -- -- 50
2019-08-07 18:00:00 20.3 14 Oeste 22 Oeste 0 -- -- 53
2019-08-07 17:00:00 20.5 12 Oeste 44 Oeste 0.2 -- -- 56
2019-08-07 16:00:00 23.9 15 Oeste 28 Oeste 0 -- -- 39
2019-08-07 15:00:00 24.1 19 Sudoeste 28 Oeste 0 -- -- 39
2019-08-07 14:00:00 24.8 21 Oeste 33 Oeste 0 -- -- 42
2019-08-07 13:00:00 24 21 Noroeste 31 Noroeste 0 -- -- 45
2019-08-07 12:00:00 24.3 17 Noroeste 27 Oeste 0 -- -- 45
2019-08-07 11:00:00 23.3 14 Oeste 22 Noroeste 0 -- -- 46
2019-08-07 10:00:00 21.9 13 Oeste 19 Oeste 0 -- -- 50
2019-08-07 09:00:00 21.3 10 Oeste 17 Oeste 0 -- -- 50
2019-08-07 08:00:00 18.9 12 Oeste 15 Oeste 0 -- -- 53
2019-08-07 07:00:00 18.5 11 Oeste 18 Oeste 0 -- -- 54
2019-08-07 06:00:00 19.1 3 Noroeste 10 Noroeste 0 -- -- 52
2019-08-07 05:00:00 18.9 6 Oeste 15 Oeste 0 -- -- 53
2019-08-07 04:00:00 18.9 8 Noroeste 17 Oeste 0 -- -- 61
2019-08-07 03:00:00 20.7 13 Oeste 18 Oeste 0 -- -- 45
2019-08-07 02:00:00 21.5 13 Oeste 23 Oeste 0 -- -- 43
2019-08-07 01:00:00 22 16 Oeste 26 Oeste 0 -- -- 41
2019-08-07 00:00:00 22.7 12 Oeste 17 Noroeste 0 -- -- 40
2019-08-06 23:00:00 23.5 11 Noroeste 15 Noroeste 0 -- -- 38
2019-08-06 22:00:00 24.6 10 Noroeste 15 Noroeste 0 -- -- 36
2019-08-06 21:00:00 26.8 8 Noroeste 20 Norte 0 -- -- 29
2019-08-06 20:00:00 28.5 15 Norte 28 Noroeste 0 -- -- 24
2019-08-06 19:00:00 30.5 15 Oeste 24 Oeste 0 -- -- 22
2019-08-06 18:00:00 33 10 Oeste 26 Noroeste 0 -- -- 19
2019-08-06 17:00:00 30.8 10 Noroeste 28 Oeste 0 -- -- 21
2019-08-06 16:00:00 31.2 12 Noroeste 30 Oeste 0 -- -- 22
2019-08-06 15:00:00 31 14 Noroeste 33 Oeste 0 -- -- 22
2019-08-06 14:00:00 29.8 19 Noroeste 30 Oeste 0 -- -- 23
2019-08-06 13:00:00 29.5 18 Noroeste 26 Noroeste 0 -- -- 28
2019-08-06 12:00:00 28.3 10 Noroeste 18 Norte 0 -- -- 30
2019-08-06 11:00:00 27.6 8 Noroeste 15 Oeste 0 -- -- 33
2019-08-06 10:00:00 26.4 5 Noroeste 12 Oeste 0 -- -- 34
2019-08-06 09:00:00 23.1 7 Oeste 32 Oeste 0 -- -- 40
2019-08-06 08:00:00 19.1 10 Noroeste 17 Oeste 0 -- -- 46
2019-08-06 07:00:00 17.2 10 Sudoeste 16 Sudoeste 0 -- -- 47
2019-08-06 06:00:00 19.2 10 Sudoeste 19 Oeste 0 -- -- 44
2019-08-06 05:00:00 20.3 17 Oeste 22 Oeste 0 -- -- 42
2019-08-06 04:00:00 20.3 13 Oeste 18 Oeste 0 -- -- 41
2019-08-06 03:00:00 19.4 2 Noroeste 12 Sudoeste 0 -- -- 42
2019-08-06 02:00:00 20.4 9 Sudoeste 15 Oeste 0 -- -- 39
2019-08-06 01:00:00 22.6 14 Oeste 22 Oeste 0 -- -- 34
2019-08-06 00:00:00 23 13 Oeste 18 Oeste 0 -- -- 31
2019-08-05 23:00:00 23.9 11 Sudoeste 15 Noroeste 0 -- -- 28
2019-08-05 22:00:00 25 12 Noroeste 16 Noroeste 0 -- -- 26
2019-08-05 21:00:00 29.1 9 Norte 21 Noroeste 0 -- -- 20
2019-08-05 20:00:00 30.7 20 Norte 30 Noroeste 0 -- -- 19
2019-08-05 19:00:00 32.8 12 Norte 21 Noroeste 0 -- -- 19
2019-08-05 18:00:00 32.4 13 Norte 26 Noroeste 0 -- -- 19
2019-08-05 17:00:00 32.6 11 Norte 25 Noroeste 0 -- -- 20
2019-08-05 16:00:00 32 8 Noroeste 28 Oeste 0 -- -- 22
2019-08-05 15:00:00 32.3 8 Sudoeste 26 Sudoeste 0 -- -- 23
2019-08-05 14:00:00 30.5 13 Noroeste 32 Noroeste 0 -- -- 25
2019-08-05 13:00:00 29.8 8 Noroeste 19 Oeste 0 -- -- 26
2019-08-05 12:00:00 27.9 7 Norte 14 Noroeste 0 -- -- 29
2019-08-05 11:00:00 26.8 9 Norte 14 Noroeste 0 -- -- 31
2019-08-05 10:00:00 25.2 4 Norte 8 Norte 0 -- -- 33
2019-08-05 09:00:00 22.7 3 Este 12 Sur 0 -- -- 37
2019-08-05 08:00:00 17.8 10 Sudoeste 12 Sur 0 -- -- 44
2019-08-05 07:00:00 16.4 2 Sudoeste 12 Oeste 0 -- -- 48
2019-08-05 06:00:00 17 7 Sudoeste 11 Oeste 0 -- -- 46
2019-08-05 05:00:00 18.6 5 Oeste 8 Oeste 0 -- -- 44
2019-08-05 04:00:00 18.3 4 Sudoeste 13 Sudoeste 0 -- -- 43
2019-08-05 03:00:00 20.1 10 Sudoeste 13 Sudoeste 0 -- -- 39
2019-08-05 02:00:00 20.1 8 Sudoeste 12 Sudoeste 0 -- -- 36
2019-08-05 01:00:00 20.7 2 Este 10 Sudoeste 0 -- -- 33
2019-08-05 00:00:00 22 2 Sudeste 11 Oeste 0 -- -- 29
2019-08-04 23:00:00 23.2 8 Oeste 12 Oeste 0 -- -- 29
2019-08-04 22:00:00 24.8 7 Sudoeste 12 Oeste 0 -- -- 26
2019-08-04 21:00:00 28.9 13 Noroeste 24 Noroeste 0 -- -- 21
2019-08-04 20:00:00 31.3 15 Noroeste 30 Noroeste 0 -- -- 18
2019-08-04 19:00:00 32.4 14 Noroeste 33 Sudoeste 0 -- -- 20
2019-08-04 18:00:00 33.3 15 Oeste 27 Noroeste 0 -- -- 18
2019-08-04 17:00:00 33.3 13 Oeste 27 Oeste 0 -- -- 17
2019-08-04 16:00:00 32.3 9 Oeste 28 Noroeste 0 -- -- 22
2019-08-04 15:00:00 31.6 12 Noroeste 23 Noroeste 0 -- -- 22
2019-08-04 14:00:00 30.9 12 Oeste 26 Oeste 0 -- -- 24
2019-08-04 13:00:00 28.9 13 Noroeste 23 Norte 0 -- -- 31
2019-08-04 12:00:00 28.9 4 Este 12 Norte 0 -- -- 29
2019-08-04 11:00:00 26 5 Norte 15 Norte 0 -- -- 36
2019-08-04 10:00:00 24.2 10 Noroeste 21 Oeste 0 -- -- 41
2019-08-04 09:00:00 22.2 3 Este 8 Sudeste 0 -- -- 36
2019-08-04 08:00:00 18.2 7 Sudeste 9 Sudeste 0 -- -- 44
2019-08-04 07:00:00 15.5 5 Sur 18 Oeste 0 -- -- 48
2019-08-04 06:00:00 17.6 14 Oeste 18 Oeste 0 -- -- 44
2019-08-04 05:00:00 16.3 0 Calma 6 Sudeste 0 -- -- 39
2019-08-04 04:00:00 17.1 0 Calma 6 Sudeste 0 -- -- 34
2019-08-04 03:00:00 17.2 3 Este 8 Oeste 0 -- -- 33
2019-08-04 02:00:00 18.6 4 Sudeste 13 Sur 0 -- -- 31
2019-08-04 01:00:00 20.7 3 Sudeste 7 Sudeste 0 -- -- 26
2019-08-04 00:00:00 21 6 Sudeste 13 Sudoeste 0 -- -- 25
2019-08-03 23:00:00 23.7 9 Sudoeste 12 Sur 0 -- -- 22
2019-08-03 22:00:00 25.9 3 Oeste 11 Noroeste 0 -- -- 18
2019-08-03 21:00:00 29.5 11 Noroeste 22 Sudoeste 0 -- -- 16
2019-08-03 20:00:00 32.9 9 Oeste 24 Sudoeste 0 -- -- 17
2019-08-03 19:00:00 31.9 15 Oeste 28 Sudoeste 0 -- -- 19
2019-08-03 18:00:00 33.9 12 Oeste 31 Oeste 0 -- -- 19
2019-08-03 17:00:00 32.1 9 Sudoeste 29 Sudoeste 0 -- -- 20
2019-08-03 16:00:00 32.9 20 Oeste 32 Oeste 0 -- -- 19
2019-08-03 15:00:00 32 19 Norte 33 Oeste 0 -- -- 18
2019-08-03 14:00:00 31.6 15 Noroeste 29 Nordeste 0 -- -- 20
2019-08-03 13:00:00 31 11 Noroeste 31 Noroeste 0 -- -- 21
2019-08-03 12:00:00 29.6 6 Norte 14 Norte 0 -- -- 25
2019-08-03 11:00:00 27 8 Norte 15 Norte 0 -- -- 31
2019-08-03 10:00:00 25.9 12 Norte 21 Sudoeste 0 -- -- 34
2019-08-03 09:00:00 24.4 10 Sur 23 Sur 0 -- -- 35
2019-08-03 08:00:00 21.1 14 Sur 42 Sudoeste 0 -- -- 43
2019-08-03 07:00:00 20.8 22 Sur 31 Sur 0 -- -- 42
2019-08-03 06:00:00 15.9 11 Sudeste 24 Sudeste 0 -- -- 58
2019-08-03 05:00:00 19 19 Sudeste 27 Sudeste 0 -- -- 50
2019-08-03 04:00:00 17 15 Sudeste 20 Sudeste 0 -- -- 57
2019-08-03 03:00:00 17.8 13 Sudeste 19 Sudeste 0 -- -- 56
2019-08-03 02:00:00 17.8 15 Sudeste 22 Sudeste 0 -- -- 60
2019-08-03 01:00:00 20 17 Sudeste 24 Sudeste 0 -- -- 55
2019-08-03 00:00:00 21.3 19 Sudeste 31 Este 0 -- -- 51
2019-08-02 23:00:00 23 21 Sudeste 33 Sudeste 0 -- -- 43
2019-08-02 22:00:00 24.9 18 Este 28 Este 0 -- -- 38
2019-08-02 21:00:00 27.9 15 Norte 25 Norte 0 -- -- 25
2019-08-02 20:00:00 30 13 Norte 24 Norte 0 -- -- 24
2019-08-02 19:00:00 31.1 14 Nordeste 28 Nordeste 0 -- -- 23
2019-08-02 18:00:00 31.7 13 Este 23 Noroeste 0 -- -- 23
2019-08-02 17:00:00 31.1 8 Norte 24 Oeste 0 -- -- 24
2019-08-02 16:00:00 30.2 12 Norte 26 Norte 0 -- -- 25
2019-08-02 15:00:00 29.5 12 Norte 24 Noroeste 0 -- -- 26
2019-08-02 14:00:00 29.2 8 Nordeste 24 Noroeste 0 -- -- 27
2019-08-02 13:00:00 28.8 13 Norte 21 Norte 0 -- -- 26
2019-08-02 12:00:00 27.5 9 Nordeste 15 Nordeste 0 -- -- 36
2019-08-02 11:00:00 24.9 8 Norte 15 Norte 0 -- -- 50
2019-08-02 10:00:00 24 4 Norte 11 Noroeste 0 -- -- 52
2019-08-02 09:00:00 22.1 3 Este 10 Sudeste 0 -- -- 58
2019-08-02 08:00:00 16.9 8 Sudeste 13 Sudeste 0 -- -- 75
2019-08-02 07:00:00 14.3 12 Sudeste 14 Sudeste 0 -- -- 85
2019-08-02 06:00:00 14.2 12 Sudeste 14 Sudeste 0 -- -- 85
2019-08-02 05:00:00 14.7 12 Sudeste 17 Sudeste 0 -- -- 84
2019-08-02 04:00:00 14.9 11 Sudeste 14 Sudeste 0 -- -- 81
2019-08-02 03:00:00 15.8 10 Sudeste 13 Sudeste 0 -- -- 79
2019-08-02 02:00:00 18.2 13 Sudeste 14 Sudeste 0 -- -- 69
2019-08-02 01:00:00 18.3 9 Sudeste 15 Sudeste 0 -- -- 65
2019-08-02 00:00:00 19.9 5 Sudeste 11 Nordeste 0 -- -- 57
2019-08-01 23:00:00 21.2 5 Nordeste 13 Norte 0 -- -- 45
2019-08-01 22:00:00 22.4 8 Noroeste 18 Noroeste 0 -- -- 35
2019-08-01 21:00:00 25.7 13 Noroeste 34 Noroeste 0 -- -- 29
2019-08-01 20:00:00 28.5 21 Noroeste 33 Noroeste 0 -- -- 23
2019-08-01 19:00:00 29.5 17 Noroeste 40 Noroeste 0 -- -- 23
2019-08-01 18:00:00 29.8 23 Noroeste 41 Oeste 0 -- -- 22
2019-08-01 17:00:00 29.6 28 Oeste 48 Noroeste 0 -- -- 20
2019-08-01 16:00:00 29.3 30 Oeste 46 Oeste 0 -- -- 22
2019-08-01 15:00:00 28.6 31 Oeste 48 Noroeste 0 -- -- 23
2019-08-01 14:00:00 28.5 26 Oeste 41 Noroeste 0 -- -- 28
2019-08-01 13:00:00 27.5 23 Noroeste 39 Noroeste 0 -- -- 35
2019-08-01 12:00:00 26.7 10 Noroeste 25 Noroeste 0 -- -- 42
2019-08-01 11:00:00 26.1 6 Noroeste 15 Noroeste 0 -- -- 47
2019-08-01 10:00:00 25.9 3 Sudoeste 13 Sur 0 -- -- 48
2019-08-01 09:00:00 22.1 8 Sur 20 Sudeste 0 -- -- 59
2019-08-01 08:00:00 18.9 14 Sur 26 Sur 0 -- -- 70
2019-08-01 07:00:00 19.1 17 Sur 29 Sudoeste 0 -- -- 71
2019-08-01 06:00:00 18.8 15 Sudeste 24 Sudeste 0 -- -- 72
2019-08-01 05:00:00 19.8 16 Sur 32 Sudeste 0 -- -- 67
2019-08-01 04:00:00 20.6 20 Sur 32 Sur 0 -- -- 61
2019-08-01 03:00:00 19.8 16 Sudeste 25 Sudeste 0 -- -- 60
2019-08-01 02:00:00 20.1 11 Sudeste 24 Sudeste 0 -- -- 56
2019-08-01 01:00:00 19.9 6 Sudeste 29 Sudeste 0 -- -- 53
2019-08-01 00:00:00 21.8 22 Sudeste 38 Sudeste 0 -- -- 45
2019-07-31 23:00:00 22.2 24 Sudeste 32 Sudeste 0 -- -- 43
2019-07-31 22:00:00 23.5 21 Sudeste 30 Sudeste 0 -- -- 40
2019-07-31 21:00:00 26.3 9 Sur 22 Sudoeste 0 -- -- 35
2019-07-31 20:00:00 29 17 Sudoeste 31 Sudoeste 0 -- -- 29
2019-07-31 19:00:00 29.8 15 Sudoeste 35 Sudoeste 0 -- -- 29
2019-07-31 18:00:00 30.5 22 Sudoeste 40 Sudoeste 0 -- -- 24
2019-07-31 17:00:00 30.5 21 Sudoeste 39 Sur 0 -- -- 25
2019-07-31 16:00:00 30.3 19 Sudoeste 38 Sudoeste 0 -- -- 26
2019-07-31 15:00:00 29.1 18 Sudoeste 39 Sur 0 -- -- 26
2019-07-31 14:00:00 28.5 19 Sur 39 Sudeste 0 -- -- 31
2019-07-31 13:00:00 26.8 19 Sudeste 32 Sudeste 0 -- -- 40
2019-07-31 12:00:00 24.8 16 Sudeste 31 Este 0 -- -- 43
2019-07-31 11:00:00 20.5 23 Este 35 Este 0 -- -- 49
2019-07-31 10:00:00 18.5 23 Sudeste 31 Sudeste 0 -- -- 51
2019-07-31 09:00:00 16.9 17 Sudeste 29 Sudeste 0 -- -- 55
2019-07-31 08:00:00 12.6 22 Sudeste 36 Sudeste 0 -- -- 66
2019-07-31 07:00:00 11.3 18 Sudeste 28 Sudeste 0 -- -- 72
2019-07-31 06:00:00 10.2 17 Sudeste 23 Sudeste 0 -- -- 76
2019-07-31 05:00:00 10.9 12 Sudeste 26 Sudeste 0 -- -- 74
2019-07-31 04:00:00 11.1 15 Sudeste 35 Sudeste 0 -- -- 72
2019-07-31 03:00:00 11.6 17 Sudeste 24 Sudeste 0 -- -- 71
2019-07-31 02:00:00 12.4 18 Sudeste 30 Sudeste 0 -- -- 68
2019-07-31 01:00:00 12.7 18 Sudeste 28 Sudeste 0 -- -- 66
2019-07-31 00:00:00 14.5 16 Sudeste 27 Este 0 -- -- 57
2019-07-30 23:00:00 16.6 14 Este 25 Este 0 -- -- 51
2019-07-30 22:00:00 18.4 13 Norte 18 Norte 0 -- -- 38
2019-07-30 21:00:00 21 10 Norte 18 Noroeste 0 -- -- 31
2019-07-30 20:00:00 23.2 14 Norte 21 Noroeste 0 -- -- 29
2019-07-30 19:00:00 24.7 9 Norte 19 Norte 0 -- -- 27
2019-07-30 18:00:00 24.8 11 Noroeste 23 Noroeste 0 -- -- 27
2019-07-30 17:00:00 23.6 8 Noroeste 34 Oeste 0 -- -- 27
2019-07-30 16:00:00 23.1 11 Nordeste 23 Norte 0 -- -- 28
2019-07-30 15:00:00 22.5 7 Nordeste 23 Noroeste 0 -- -- 28
2019-07-30 14:00:00 21.1 13 Noroeste 25 Norte 0 -- -- 31
2019-07-30 13:00:00 19.6 11 Noroeste 25 Noroeste 0 -- -- 35
2019-07-30 12:00:00 18.5 12 Noroeste 24 Noroeste 0 -- -- 39
2019-07-30 11:00:00 16.6 16 Noroeste 25 Noroeste 0 -- -- 50
2019-07-30 10:00:00 14.4 20 Oeste 31 Noroeste 0 -- -- 57
2019-07-30 09:00:00 12.8 22 Oeste 33 Oeste 0 -- -- 61
2019-07-30 08:00:00 11.4 19 Noroeste 31 Oeste 0 -- -- 63
2019-07-30 07:00:00 11 23 Oeste 32 Oeste 0 -- -- 62
2019-07-30 06:00:00 11.2 18 Oeste 30 Oeste 0 -- -- 61
2019-07-30 05:00:00 12 20 Oeste 33 Oeste 0 -- -- 57
2019-07-30 04:00:00 12.5 19 Oeste 26 Oeste 0 -- -- 53
2019-07-30 03:00:00 13.4 15 Oeste 25 Oeste 0 -- -- 49
2019-07-30 02:00:00 14.3 14 Oeste 32 Oeste 0 -- -- 46
2019-07-30 01:00:00 15.7 21 Oeste 30 Oeste 0 -- -- 40
2019-07-30 00:00:00 17 14 Oeste 23 Oeste 0 -- -- 37
2019-07-29 23:00:00 18.3 14 Noroeste 29 Noroeste 0 -- -- 34
2019-07-29 22:00:00 20.3 19 Noroeste 34 Oeste 0 -- -- 31
2019-07-29 21:00:00 22.8 28 Noroeste 44 Noroeste 0 -- -- 25
2019-07-29 20:00:00 24.9 27 Noroeste 43 Noroeste 0 -- -- 28
2019-07-29 19:00:00 26.1 29 Noroeste 46 Oeste 0 -- -- 31
2019-07-29 18:00:00 27.2 28 Noroeste 50 Noroeste 0 -- -- 28
2019-07-29 17:00:00 27.9 32 Noroeste 55 Noroeste 0 -- -- 23
2019-07-29 16:00:00 28.1 27 Noroeste 42 Oeste 0 -- -- 22
2019-07-29 15:00:00 27.4 21 Noroeste 37 Oeste 0 -- -- 27
2019-07-29 14:00:00 26 19 Noroeste 33 Noroeste 0 -- -- 31
2019-07-29 13:00:00 25 17 Noroeste -- -- -- -- -- 35
2019-07-29 12:00:00 -- -- -- -- -- -- -- -- --
2019-07-29 11:00:00 -- -- -- -- -- -- -- -- --
2019-07-29 10:00:00 -- -- -- -- -- -- -- -- --
2019-07-29 09:00:00 -- -- -- -- -- -- -- -- --
2019-07-29 08:00:00 -- -- -- -- -- -- -- -- --
2019-07-29 07:00:00 -- -- -- -- -- -- -- -- --
2019-07-29 06:00:00 -- -- -- -- -- -- -- -- --
2019-07-29 05:00:00 -- -- -- -- -- -- -- -- --
2019-07-29 04:00:00 -- -- -- -- -- -- -- -- --
2019-07-29 03:00:00 -- -- -- -- -- -- -- -- --
2019-07-29 02:00:00 -- -- -- -- -- -- -- -- --
2019-07-29 01:00:00 -- -- -- -- -- -- -- -- --
2019-07-29 00:00:00 -- -- -- -- -- -- -- -- --
2019-07-28 23:00:00 -- -- -- -- -- -- -- -- --
2019-07-28 22:00:00 -- -- -- -- -- -- -- -- --
2019-07-28 21:00:00 -- -- -- -- -- -- -- -- --
2019-07-28 20:00:00 -- -- -- -- -- -- -- -- --
2019-07-28 19:00:00 -- -- -- -- -- -- -- -- --
2019-07-28 18:00:00 -- -- -- -- -- -- -- -- --
2019-07-28 17:00:00 -- -- -- -- -- -- -- -- --
2019-07-28 16:00:00 -- -- -- -- -- -- -- -- --
2019-07-28 15:00:00 -- -- -- -- -- -- -- -- --
2019-07-28 14:00:00 -- -- -- -- -- -- -- -- --
2019-07-28 13:00:00 -- -- -- -- -- -- -- -- --
2019-07-28 12:00:00 -- -- -- -- -- -- -- -- --
2019-07-28 11:00:00 -- -- -- -- -- -- -- -- --
2019-07-28 10:00:00 -- -- -- -- -- -- -- -- --
2019-07-28 09:00:00 -- -- -- -- -- -- -- -- --
2019-07-28 08:00:00 -- -- -- -- -- -- -- -- --
2019-07-28 07:00:00 -- -- -- -- -- -- -- -- --
2019-07-28 06:00:00 -- -- -- -- -- -- -- -- --
2019-07-28 05:00:00 -- -- -- -- -- -- -- -- --
2019-07-28 04:00:00 -- -- -- -- -- -- -- -- --
2019-07-28 03:00:00 -- -- -- -- -- -- -- -- --
2019-07-28 02:00:00 -- -- -- -- -- -- -- -- --
2019-07-28 01:00:00 -- -- -- -- -- -- -- -- --
2019-07-28 00:00:00 -- -- -- -- -- -- -- -- --
2019-07-27 23:00:00 -- -- -- -- -- -- -- -- --
2019-07-26 12:00:00 -- -- -- -- -- -- -- -- --
2019-07-26 11:00:00 -- -- -- -- -- -- -- -- --
2019-07-26 10:00:00 -- -- -- -- -- -- -- -- --
2019-07-26 09:00:00 -- -- -- -- -- -- -- -- --
2019-07-26 08:00:00 -- -- -- -- -- -- -- -- --
2019-07-26 07:00:00 -- -- -- -- -- -- -- -- --
2019-07-26 06:00:00 -- -- -- -- -- -- -- -- --
2019-07-26 05:00:00 -- -- -- -- -- -- -- -- --
2019-07-26 04:00:00 -- -- -- -- -- -- -- -- --
2019-07-26 03:00:00 -- -- -- -- -- -- -- -- --
2019-07-26 02:00:00 -- -- -- -- -- -- -- -- --
2019-07-26 01:00:00 -- -- -- -- -- -- -- -- --
2019-07-26 00:00:00 -- -- -- -- -- -- -- -- --
2019-07-25 23:00:00 -- -- -- -- -- -- -- -- --
2019-07-25 22:00:00 -- -- -- -- -- -- -- -- --
2019-07-25 21:00:00 -- -- -- -- -- -- -- -- --
2019-07-25 20:00:00 -- -- -- -- -- -- -- -- --
2019-07-25 19:00:00 -- -- -- -- -- -- -- -- --
2019-07-25 18:00:00 -- -- -- -- -- -- -- -- --
2019-07-25 17:00:00 -- -- -- -- -- -- -- -- --
2019-07-25 16:00:00 -- -- -- -- -- -- -- -- --
2019-07-25 15:00:00 -- -- -- -- -- -- -- -- --
2019-07-25 14:00:00 -- -- -- -- -- -- -- -- --
2019-07-25 13:00:00 -- -- -- -- -- -- -- -- --
2019-07-25 12:00:00 -- -- -- -- -- -- -- -- --
2019-07-25 11:00:00 -- -- -- -- -- -- -- -- --
2019-07-25 10:00:00 -- -- -- -- -- -- -- -- --
2019-07-25 09:00:00 -- -- -- -- -- -- -- -- --
2019-07-25 08:00:00 -- -- -- -- -- -- -- -- --
2019-07-25 07:00:00 -- -- -- -- -- -- -- -- --
2019-07-25 06:00:00 -- -- -- -- -- -- -- -- --
2019-07-25 05:00:00 -- -- -- -- -- -- -- -- --
2019-07-25 04:00:00 -- -- -- -- -- -- -- -- --
2019-07-25 03:00:00 -- -- -- -- -- -- -- -- --
2019-07-25 02:00:00 -- -- -- -- -- -- -- -- --
2019-07-25 01:00:00 -- -- -- -- -- -- -- -- --
2019-07-25 00:00:00 -- -- -- -- -- -- -- -- --
2019-07-24 23:00:00 -- -- -- -- -- -- -- -- --
2019-07-24 22:00:00 -- -- -- -- -- -- -- -- --
2019-07-24 21:00:00 -- -- -- -- -- -- -- -- --
2019-07-24 20:00:00 -- -- -- -- -- -- -- -- --
2019-07-24 19:00:00 -- -- -- -- -- -- -- -- --
2019-07-24 18:00:00 -- -- -- -- -- -- -- -- --
2019-07-24 17:00:00 -- -- -- -- -- -- -- -- --
2019-07-24 16:00:00 -- -- -- -- -- -- -- -- --
2019-07-24 15:00:00 -- -- -- -- -- -- -- -- --
2019-07-24 14:00:00 -- -- -- -- -- -- -- -- --
2019-07-24 13:00:00 -- -- -- -- -- -- -- -- --
2019-07-24 12:00:00 -- -- -- -- -- -- -- -- --
2019-07-24 11:00:00 -- -- -- -- -- -- -- -- --
2019-07-24 10:00:00 -- -- -- -- -- -- -- -- --
2019-07-24 09:00:00 -- -- -- -- -- -- -- -- --
2019-07-24 08:00:00 -- -- -- -- -- -- -- -- --
2019-07-24 07:00:00 -- -- -- -- -- -- -- -- --
2019-07-24 06:00:00 -- -- -- -- -- -- -- -- --
2019-07-24 05:00:00 -- -- -- -- -- -- -- -- --
2019-07-24 04:00:00 -- -- -- -- -- -- -- -- --
2019-07-24 03:00:00 -- -- -- -- -- -- -- -- --
2019-07-24 02:00:00 -- -- -- -- -- -- -- -- --
2019-07-24 01:00:00 -- -- -- -- -- -- -- -- --
2019-07-24 00:00:00 -- -- -- -- -- -- -- -- --
2019-07-23 23:00:00 -- -- -- -- -- -- -- -- --
2019-07-23 22:00:00 -- -- -- -- -- -- -- -- --
2019-07-23 21:00:00 -- -- -- -- -- -- -- -- --
2019-07-23 20:00:00 -- -- -- -- -- -- -- -- --
2019-07-23 19:00:00 -- -- -- -- -- -- -- -- --
2019-07-23 18:00:00 -- -- -- -- -- -- -- -- --
2019-07-23 17:00:00 -- -- -- -- -- -- -- -- --
2019-07-23 16:00:00 33.9 21 Sur 43 Sur 0 -- -- 19
2019-07-23 15:00:00 33.3 23 Sur 42 Sur 0 -- -- 20
2019-07-23 14:00:00 31 22 Sudoeste 46 Sur 0 -- -- 21
2019-07-23 13:00:00 31.2 25 Sur 43 Sudeste 0 -- -- 22
2019-07-23 12:00:00 28.1 21 Sudeste 34 Sudeste 0 -- -- 28
2019-07-23 11:00:00 26.7 13 Sudeste 20 Este 0 -- -- 34
2019-07-23 10:00:00 25.7 12 Noroeste 27 Noroeste 0 -- -- 38
2019-07-23 09:00:00 24.2 12 Noroeste 24 Oeste 0 -- -- 32
2019-07-23 08:00:00 24.7 16 Sudoeste 40 Sudoeste 0 -- -- 29
2019-07-23 07:00:00 22.5 5 Oeste 30 Sudoeste 0 -- -- 32
2019-07-23 06:00:00 23.5 22 Sur 42 Sur 0 -- -- 29
2019-07-23 05:00:00 20.8 15 Sudeste 20 Sudeste 0 -- -- 40
2019-07-23 04:00:00 20 14 Sur 17 Sur 0 -- -- 43
2019-07-23 03:00:00 20.8 11 Sudoeste 16 Sudoeste 0 -- -- 43
2019-07-23 02:00:00 22.2 12 Sudoeste 25 Sudoeste 0 -- -- 40
2019-07-23 01:00:00 25.4 13 Sudoeste 25 Sudoeste 0 -- -- 28
2019-07-23 00:00:00 26 7 Sur 18 Sudeste 0 -- -- 26
2019-07-22 23:00:00 27.4 5 Sur 24 Sur 0 -- -- 28
2019-07-22 22:00:00 28.8 13 Sur 25 Sur 0 -- -- 27
2019-07-22 21:00:00 30.3 14 Sur 33 Sur 0 -- -- 25
2019-07-22 20:00:00 32.5 22 Sur 36 Sur 0 -- -- 22
2019-07-22 19:00:00 33.6 20 Sur 46 Sur 0 -- -- 19
2019-07-22 18:00:00 33.8 24 Sur 42 Sur 0 -- -- 19
2019-07-22 17:00:00 33.4 27 Sur 41 Sur 0 -- -- 20
2019-07-22 16:00:00 33.4 25 Sur 40 Sur 0 -- -- 20
2019-07-22 15:00:00 32.8 26 Sur 38 Sur 0 -- -- 21
2019-07-22 14:00:00 32.8 21 Sur 33 Sur 0 -- -- 21
2019-07-22 13:00:00 32.2 21 Sur 37 Sur 0 -- -- 20
2019-07-22 12:00:00 30.7 16 Sur 34 Sur 0 -- -- 21
2019-07-22 11:00:00 29.4 22 Sur 33 Sur 0 -- -- 22
2019-07-22 10:00:00 27.8 22 Sur 34 Sur 0 -- -- 21
2019-07-22 09:00:00 26.1 5 Nordeste 30 Sur 0 -- -- 25
2019-07-22 08:00:00 24.4 21 Sur 47 Sur 0 -- -- 29
2019-07-22 07:00:00 22 5 Oeste 32 Sudeste 0 -- -- 38
2019-07-22 06:00:00 22.9 18 Sur 55 Sur 0 -- -- 40
2019-07-22 05:00:00 23.9 27 Sur 60 Sudeste 0 -- -- 42
2019-07-22 04:00:00 23.4 19 Sur 40 Sur 0 -- -- 43
2019-07-22 03:00:00 23.5 20 Sudeste 30 Sudeste 0 -- -- 43
2019-07-22 02:00:00 23.6 22 Sudeste 30 Sudeste 0 -- -- 45
2019-07-22 01:00:00 23.9 21 Sudeste 27 Sudeste 0 -- -- 47
2019-07-22 00:00:00 24.2 19 Sudeste 28 Este 0 -- -- 46
2019-07-21 23:00:00 24.5 16 Este 25 Este 0 -- -- 51
2019-07-21 22:00:00 25 10 Sudeste 28 Este 0 -- -- 46
2019-07-21 21:00:00 27.8 10 Nordeste 23 Norte 0 -- -- 37
2019-07-21 20:00:00 29.9 11 Nordeste 20 Nordeste 0 -- -- 31
2019-07-21 19:00:00 33.5 12 Nordeste 23 Nordeste 0 -- -- 27
2019-07-21 18:00:00 30.1 21 Norte 34 Noroeste 0 -- -- 32
2019-07-21 17:00:00 34.2 8 Sur 19 Nordeste 0 -- -- 26
2019-07-21 16:00:00 31.7 10 Nordeste 20 Norte 0 -- -- 29
2019-07-21 15:00:00 32.5 10 Este 24 Noroeste 0 -- -- 28
2019-07-21 14:00:00 33 8 Oeste 26 Noroeste 0 -- -- 27
2019-07-21 13:00:00 32.3 7 Sur 20 Este 0 -- -- 28
2019-07-21 12:00:00 29.9 9 Este 18 Sudeste 0 -- -- 33
2019-07-21 11:00:00 29.1 8 Sudeste 21 Sudeste 0 -- -- 36
2019-07-21 10:00:00 28.5 5 Sur 12 Sur 0 -- -- 37
2019-07-21 09:00:00 24.6 6 Sur 13 Sudoeste 0 -- -- 46
2019-07-21 08:00:00 20.9 10 Sudoeste 31 Sur 0 -- -- 52
2019-07-21 07:00:00 21 21 Sudeste 25 Sudeste 0 -- -- 53
2019-07-21 06:00:00 20.4 8 Sudeste 18 Sur 0 -- -- 55
2019-07-21 05:00:00 21.2 3 Sudeste 19 Noroeste 0 -- -- 53
2019-07-21 04:00:00 21.5 5 Noroeste 26 Sur 0 -- -- 46
2019-07-21 03:00:00 20.1 4 Sudeste 18 Sudeste 0 -- -- 51
2019-07-21 02:00:00 21 10 Sudeste 22 Sudeste 0 -- -- 49
2019-07-21 01:00:00 20.7 6 Sudeste 12 Nordeste 0 -- -- 45
2019-07-21 00:00:00 22.1 2 Noroeste 15 Este 0 -- -- 38
2019-07-20 23:00:00 23.7 6 Noroeste 14 Noroeste 0 -- -- 35
2019-07-20 22:00:00 26 8 Noroeste 14 Noroeste 0 -- -- 33
2019-07-20 21:00:00 29 5 Este 16 Este 0 -- -- 30
2019-07-20 20:00:00 30.3 4 Oeste 26 Oeste 0 -- -- 30
2019-07-20 19:00:00 32.7 17 Sudoeste 28 Oeste 0 -- -- 25
2019-07-20 18:00:00 33.6 18 Oeste 31 Oeste 0 -- -- 24
2019-07-20 17:00:00 33.2 7 Oeste 24 Noroeste 0 -- -- 26
2019-07-20 16:00:00 31.7 15 Oeste 27 Oeste 0 -- -- 27
2019-07-20 15:00:00 32.7 9 Noroeste 26 Norte 0 -- -- 26
2019-07-20 14:00:00 32 14 Oeste 26 Oeste 0 -- -- 27
2019-07-20 13:00:00 31.1 4 Noroeste 18 Norte 0 -- -- 28
2019-07-20 12:00:00 29.3 7 Norte 14 Nordeste 0 -- -- 30
2019-07-20 11:00:00 27.5 8 Norte 18 Norte 0 -- -- 32
2019-07-20 10:00:00 27.9 8 Noroeste 19 Sudoeste 0 -- -- 30
2019-07-20 09:00:00 24.7 13 Sur 22 Sur 0 -- -- 32
2019-07-20 08:00:00 22.7 10 Sur 17 Sur 0 -- -- 32
2019-07-20 07:00:00 21.2 4 Sudoeste 20 Sur 0 -- -- 33
2019-07-20 06:00:00 21.1 10 Sur 18 Sur 0 -- -- 34
2019-07-20 05:00:00 21.9 10 Sur 21 Sur 0 -- -- 33
2019-07-20 04:00:00 22.6 9 Oeste 21 Sudoeste 0 -- -- 32
2019-07-20 03:00:00 23.3 8 Sudoeste 21 Sur 0 -- -- 32
2019-07-20 02:00:00 23.3 10 Sur 24 Sur 0 -- -- 39
2019-07-20 01:00:00 22.5 7 Oeste 30 Oeste 0 -- -- 44
2019-07-20 00:00:00 24.3 12 Noroeste 32 Oeste 0 -- -- 40
2019-07-19 23:00:00 25.1 11 Oeste 15 Oeste 0 -- -- 34
2019-07-19 22:00:00 26.5 6 Oeste 12 Sudoeste 0 -- -- 33
2019-07-19 21:00:00 28.6 8 Oeste 21 Sudoeste 0 -- -- 29
2019-07-19 20:00:00 31 13 Sudoeste 31 Sudoeste 0 -- -- 25
2019-07-19 19:00:00 32.2 13 Sudoeste 29 Sudoeste 0 -- -- 25
2019-07-19 18:00:00 30.1 21 Oeste 35 Oeste 0 -- -- 28
2019-07-19 17:00:00 32 14 Sudoeste 36 Sur 0 -- -- 27
2019-07-19 16:00:00 31.8 18 Oeste 30 Oeste 0 -- -- 28
2019-07-19 15:00:00 29.4 5 Sudeste 17 Oeste 0 -- -- 31
2019-07-19 14:00:00 29.5 9 Oeste 23 Oeste 0 -- -- 30
2019-07-19 13:00:00 30.8 10 Oeste 20 Noroeste 0 -- -- 28
2019-07-19 12:00:00 28.7 10 Nordeste 18 Nordeste 0 -- -- 33
2019-07-19 11:00:00 28.6 6 Norte 14 Norte 0 -- -- 35
2019-07-19 10:00:00 26.7 5 Este 12 Este 0 -- -- 41
2019-07-19 09:00:00 22.1 10 Sudeste 15 Sudeste 0 -- -- 49
2019-07-19 08:00:00 18.1 5 Sudeste 12 Sudeste 0 -- -- 58
2019-07-19 07:00:00 15.4 9 Sudeste 19 Sudeste 0 -- -- 64
2019-07-19 06:00:00 16.2 14 Sudeste 24 Sudeste 0 -- -- 60
2019-07-19 05:00:00 17.9 17 Sudeste 24 Sudeste 0 -- -- 55
2019-07-19 04:00:00 16.9 15 Sudeste 19 Sudeste 0 -- -- 62
2019-07-19 03:00:00 17 14 Sudeste 20 Sudeste 0 -- -- 63
2019-07-19 02:00:00 17.4 14 Sudeste 23 Sudeste 0 -- -- 61
2019-07-19 01:00:00 18.1 15 Sudeste 22 Sudeste 0 -- -- 58
2019-07-19 00:00:00 19.3 15 Sudeste 20 Sudeste 0 -- -- 53
2019-07-18 23:00:00 19.9 14 Sudeste 18 Sudeste 0 -- -- 48
2019-07-18 22:00:00 22.3 6 Nordeste 16 Norte 0 -- -- 32
2019-07-18 21:00:00 26.2 14 Norte 27 Norte 0 -- -- 25
2019-07-18 20:00:00 27.8 21 Norte 32 Norte 0 -- -- 27
2019-07-18 19:00:00 29.2 20 Noroeste 32 Norte 0 -- -- 29
2019-07-18 18:00:00 29.1 21 Noroeste 42 Norte 0 -- -- 32
2019-07-18 17:00:00 28.9 20 Noroeste 48 Norte 0 -- -- 35
2019-07-18 16:00:00 28.5 19 Noroeste 39 Norte 0 -- -- 40
2019-07-18 15:00:00 27.7 15 Norte 29 Norte 0 -- -- 43
2019-07-18 14:00:00 26.8 11 Noroeste 21 Norte 0 -- -- 46
2019-07-18 13:00:00 25.8 10 Noroeste 19 Norte 0 -- -- 48
2019-07-18 12:00:00 24 11 Norte 18 Noroeste 0 -- -- 56
2019-07-18 11:00:00 22.6 10 Noroeste 16 Noroeste 0 -- -- 61
2019-07-18 10:00:00 21.3 4 Noroeste 8 Norte 0 -- -- 65
2019-07-18 09:00:00 18.1 5 Norte 8 Norte 0 -- -- 76
2019-07-18 08:00:00 16.1 2 Norte 5 Sudoeste 0 -- -- 81
2019-07-18 07:00:00 13.4 4 Sur 9 Sur 0 -- -- 90
2019-07-18 06:00:00 14.1 0 Calma 8 Sudeste 0 -- -- 89
2019-07-18 05:00:00 13.6 7 Sudeste 15 Sudeste 0 -- -- 91
2019-07-18 04:00:00 14.7 12 Sudeste 21 Sudeste 0 -- -- 88
2019-07-18 03:00:00 15.7 14 Sudeste 21 Sudeste 0 -- -- 85
2019-07-18 02:00:00 16 17 Sudeste 22 Sudeste 0 -- -- 84
2019-07-18 01:00:00 17.3 18 Sudeste 27 Sudeste 0 -- -- 79
2019-07-18 00:00:00 17.5 13 Sudeste 18 Sudeste 0 -- -- 78